sensor_id;sensor_type;location;lat;lon;timestamp;pressure;altitude;pressure_sealevel;temperature;humidity
77799;BME280;66989;50.426;15.352;2023-02-28T00:00:21;99417.72;;;-2.02;77.88
77799;BME280;66989;50.426;15.352;2023-02-28T00:02:47;99420.34;;;-2.10;78.18
77799;BME280;66989;50.426;15.352;2023-02-28T00:05:14;99428.13;;;-2.19;78.26
77799;BME280;66989;50.426;15.352;2023-02-28T00:07:41;99423.03;;;-2.27;79.54
77799;BME280;66989;50.426;15.352;2023-02-28T00:10:09;99425.59;;;-2.24;78.91
77799;BME280;66989;50.426;15.352;2023-02-28T00:12:36;99421.34;;;-2.34;79.59
77799;BME280;66989;50.426;15.352;2023-02-28T00:15:04;99424.81;;;-2.42;80.08
77799;BME280;66989;50.426;15.352;2023-02-28T00:17:30;99417.94;;;-2.39;79.72
77799;BME280;66989;50.426;15.352;2023-02-28T00:19:56;99424.78;;;-2.39;80.04
77799;BME280;66989;50.426;15.352;2023-02-28T00:22:22;99429.16;;;-2.48;80.83
77799;BME280;66989;50.426;15.352;2023-02-28T00:24:48;99430.91;;;-2.53;80.95
77799;BME280;66989;50.426;15.352;2023-02-28T00:27:14;99428.31;;;-2.56;81.17
77799;BME280;66989;50.426;15.352;2023-02-28T00:29:39;99436.97;;;-2.66;81.36
77799;BME280;66989;50.426;15.352;2023-02-28T00:32:05;99435.25;;;-2.72;81.54
77799;BME280;66989;50.426;15.352;2023-02-28T00:34:31;99431.84;;;-2.78;81.70
77799;BME280;66989;50.426;15.352;2023-02-28T00:37:05;99436.19;;;-2.89;81.86
77799;BME280;66989;50.426;15.352;2023-02-28T00:39:31;99439.63;;;-2.93;83.17
77799;BME280;66989;50.426;15.352;2023-02-28T00:41:58;99442.22;;;-3.03;82.44
77799;BME280;66989;50.426;15.352;2023-02-28T00:44:23;99442.25;;;-3.00;83.39
77799;BME280;66989;50.426;15.352;2023-02-28T00:46:49;99437.06;;;-3.03;83.19
77799;BME280;66989;50.426;15.352;2023-02-28T00:49:14;99437.09;;;-3.01;82.99
77799;BME280;66989;50.426;15.352;2023-02-28T00:51:39;99443.09;;;-3.04;82.89
77799;BME280;66989;50.426;15.352;2023-02-28T00:54:05;99437.06;;;-3.03;82.69
77799;BME280;66989;50.426;15.352;2023-02-28T00:56:30;99434.50;;;-3.03;82.73
77799;BME280;66989;50.426;15.352;2023-02-28T00:58:55;99436.22;;;-3.02;82.42
77799;BME280;66989;50.426;15.352;2023-02-28T01:01:22;99439.66;;;-3.00;82.21
77799;BME280;66989;50.426;15.352;2023-02-28T01:03:47;99435.38;;;-3.01;81.86
77799;BME280;66989;50.426;15.352;2023-02-28T01:06:13;99430.19;;;-2.98;81.73
77799;BME280;66989;50.426;15.352;2023-02-28T01:08:38;99438.78;;;-2.97;81.46
77799;BME280;66989;50.426;15.352;2023-02-28T01:11:08;99432.75;;;-2.98;81.04
77799;BME280;66989;50.426;15.352;2023-02-28T01:13:33;99433.63;;;-2.97;81.17
77799;BME280;66989;50.426;15.352;2023-02-28T01:15:59;99429.31;;;-2.97;80.65
77799;BME280;66989;50.426;15.352;2023-02-28T01:18:24;99437.06;;;-2.98;80.72
77799;BME280;66989;50.426;15.352;2023-02-28T01:20:50;99434.47;;;-2.97;80.78
77799;BME280;66989;50.426;15.352;2023-02-28T01:23:18;99432.78;;;-3.01;81.32
77799;BME280;66989;50.426;15.352;2023-02-28T01:25:43;99422.44;;;-2.98;81.12
77799;BME280;66989;50.426;15.352;2023-02-28T01:28:09;99422.47;;;-3.07;80.84
77799;BME280;66989;50.426;15.352;2023-02-28T01:30:34;99425.06;;;-3.10;81.12
77799;BME280;66989;50.426;15.352;2023-02-28T01:33:00;99418.19;;;-3.18;81.50
77799;BME280;66989;50.426;15.352;2023-02-28T01:35:25;99426.81;;;-3.21;81.89
77799;BME280;66989;50.426;15.352;2023-02-28T01:37:50;99424.22;;;-3.18;81.44
77799;BME280;66989;50.426;15.352;2023-02-28T01:40:16;99425.94;;;-3.20;81.23
77799;BME280;66989;50.426;15.352;2023-02-28T01:42:41;99431.97;;;-3.21;81.64
77799;BME280;66989;50.426;15.352;2023-02-28T01:45:26;99431.09;;;-3.18;81.26
77799;BME280;66989;50.426;15.352;2023-02-28T01:47:55;99430.22;;;-3.19;80.90
77799;BME280;66989;50.426;15.352;2023-02-28T01:50:25;99425.97;;;-3.21;81.59
77799;BME280;66989;50.426;15.352;2023-02-28T01:52:55;99424.22;;;-3.16;81.13
77799;BME280;66989;50.426;15.352;2023-02-28T01:55:22;99424.22;;;-3.19;80.77
77799;BME280;66989;50.426;15.352;2023-02-28T01:57:52;99422.50;;;-3.25;81.60
77799;BME280;66989;50.426;15.352;2023-02-28T02:00:22;99425.09;;;-3.36;81.19
77799;BME280;66989;50.426;15.352;2023-02-28T02:02:51;99425.09;;;-3.30;81.73
77799;BME280;66989;50.426;15.352;2023-02-28T02:05:22;99429.41;;;-3.27;82.16
77799;BME280;66989;50.426;15.352;2023-02-28T02:07:51;99431.09;;;-3.25;80.88
77799;BME280;66989;50.426;15.352;2023-02-28T02:10:20;99431.97;;;-3.19;80.55
77799;BME280;66989;50.426;15.352;2023-02-28T02:12:57;99432.84;;;-3.30;80.99
77799;BME280;66989;50.426;15.352;2023-02-28T02:15:33;99425.09;;;-3.28;82.55
77799;BME280;66989;50.426;15.352;2023-02-28T02:18:05;99438.00;;;-3.31;83.35
77799;BME280;66989;50.426;15.352;2023-02-28T02:21:05;99426.81;;;-3.33;84.07
77799;BME280;66989;50.426;15.352;2023-02-28T02:26:22;99426.84;;;-3.41;82.92
77799;BME280;66989;50.426;15.352;2023-02-28T02:34:46;99419.97;;;-3.68;83.81
77799;BME280;66989;50.426;15.352;2023-02-28T02:37:27;99420.84;;;-3.52;82.98
77799;BME280;66989;50.426;15.352;2023-02-28T02:40:14;99422.53;;;-3.56;83.04
77799;BME280;66989;50.426;15.352;2023-02-28T02:42:49;99426.81;;;-3.53;82.19
77799;BME280;66989;50.426;15.352;2023-02-28T02:47:41;99415.69;;;-3.63;82.43
77799;BME280;66989;50.426;15.352;2023-02-28T02:50:13;99418.25;;;-3.66;82.89
77799;BME280;66989;50.426;15.352;2023-02-28T02:52:44;99427.69;;;-3.60;82.52
77799;BME280;66989;50.426;15.352;2023-02-28T02:55:13;99425.97;;;-3.69;82.43
77799;BME280;66989;50.426;15.352;2023-02-28T02:57:49;99424.28;;;-3.73;82.61
77799;BME280;66989;50.426;15.352;2023-02-28T03:00:18;99421.69;;;-3.67;82.21
77799;BME280;66989;50.426;15.352;2023-02-28T03:02:47;99415.69;;;-3.57;81.55
77799;BME280;66989;50.426;15.352;2023-02-28T03:05:35;99431.97;;;-3.59;81.86
77799;BME280;66989;50.426;15.352;2023-02-28T03:08:04;99420.81;;;-3.61;81.84
77799;BME280;66989;50.426;15.352;2023-02-28T03:10:40;99429.41;;;-3.64;81.97
77799;BME280;66989;50.426;15.352;2023-02-28T03:24:21;99426.84;;;-3.70;81.75
77799;BME280;66989;50.426;15.352;2023-02-28T03:26:58;99424.25;;;-3.65;81.63
77799;BME280;66989;50.426;15.352;2023-02-28T03:29:45;99426.00;;;-3.67;81.46
77799;BME280;66989;50.426;15.352;2023-02-28T03:32:27;99432.84;;;-3.71;80.95
77799;BME280;66989;50.426;15.352;2023-02-28T03:35:14;99424.25;;;-3.79;81.05
77799;BME280;66989;50.426;15.352;2023-02-28T03:37:49;99425.09;;;-3.80;81.55
77799;BME280;66989;50.426;15.352;2023-02-28T03:40:17;99415.66;;;-3.75;81.31
77799;BME280;66989;50.426;15.352;2023-02-28T03:42:48;99424.25;;;-3.79;81.38
77799;BME280;66989;50.426;15.352;2023-02-28T03:45:24;99425.13;;;-3.72;80.99
77799;BME280;66989;50.426;15.352;2023-02-28T03:47:55;99419.13;;;-3.73;80.74
77799;BME280;66989;50.426;15.352;2023-02-28T03:50:32;99422.53;;;-3.77;80.65
77799;BME280;66989;50.426;15.352;2023-02-28T03:53:11;99426.81;;;-3.64;80.06
77799;BME280;66989;50.426;15.352;2023-02-28T03:55:42;99422.56;;;-3.62;79.75
77799;BME280;66989;50.426;15.352;2023-02-28T03:58:30;99428.53;;;-3.64;79.05
77799;BME280;66989;50.426;15.352;2023-02-28T04:01:07;99423.41;;;-3.61;79.36
77799;BME280;66989;50.426;15.352;2023-02-28T04:03:36;99431.13;;;-3.57;79.28
77799;BME280;66989;50.426;15.352;2023-02-28T04:06:01;99430.28;;;-3.56;79.33
77799;BME280;66989;50.426;15.352;2023-02-28T04:08:27;99422.53;;;-3.45;77.97
77799;BME280;66989;50.426;15.352;2023-02-28T04:10:58;99419.13;;;-3.42;77.79
77799;BME280;66989;50.426;15.352;2023-02-28T04:13:25;99425.97;;;-3.41;77.90
77799;BME280;66989;50.426;15.352;2023-02-28T04:15:50;99425.97;;;-3.40;77.73
77799;BME280;66989;50.426;15.352;2023-02-28T04:18:16;99411.34;;;-3.32;77.03
77799;BME280;66989;50.426;15.352;2023-02-28T04:20:41;99419.94;;;-3.31;77.20
77799;BME280;66989;50.426;15.352;2023-02-28T04:23:06;99421.66;;;-3.32;77.15
77799;BME280;66989;50.426;15.352;2023-02-28T04:25:32;99423.34;;;-3.28;76.52
77799;BME280;66989;50.426;15.352;2023-02-28T04:27:57;99423.34;;;-3.23;76.28
77799;BME280;66989;50.426;15.352;2023-02-28T04:30:22;99421.66;;;-3.27;75.65
77799;BME280;66989;50.426;15.352;2023-02-28T04:32:48;99433.69;;;-3.34;76.08
77799;BME280;66989;50.426;15.352;2023-02-28T04:35:13;99437.16;;;-3.36;75.64
77799;BME280;66989;50.426;15.352;2023-02-28T04:37:39;99429.38;;;-3.21;74.95
77799;BME280;66989;50.426;15.352;2023-02-28T04:40:04;99428.53;;;-3.21;74.79
77799;BME280;66989;50.426;15.352;2023-02-28T04:42:30;99430.25;;;-3.22;75.12
77799;BME280;66989;50.426;15.352;2023-02-28T04:45:03;99431.97;;;-3.33;75.59
77799;BME280;66989;50.426;15.352;2023-02-28T04:47:29;99432.84;;;-3.27;75.59
77799;BME280;66989;50.426;15.352;2023-02-28T04:49:55;99433.72;;;-3.37;75.66
77799;BME280;66989;50.426;15.352;2023-02-28T04:52:20;99437.13;;;-3.38;75.31
77799;BME280;66989;50.426;15.352;2023-02-28T04:54:46;99433.72;;;-3.37;75.46
77799;BME280;66989;50.426;15.352;2023-02-28T04:57:11;99436.28;;;-3.51;75.68
77799;BME280;66989;50.426;15.352;2023-02-28T04:59:36;99428.53;;;-3.54;75.83
77799;BME280;66989;50.426;15.352;2023-02-28T05:02:03;99432.88;;;-3.53;75.77
77799;BME280;66989;50.426;15.352;2023-02-28T05:04:35;99435.41;;;-3.54;75.80
77799;BME280;66989;50.426;15.352;2023-02-28T05:07:01;99443.16;;;-3.51;75.60
77799;BME280;66989;50.426;15.352;2023-02-28T05:09:27;99440.56;;;-3.48;75.37
77799;BME280;66989;50.426;15.352;2023-02-28T05:11:53;99446.59;;;-3.49;75.34
77799;BME280;66989;50.426;15.352;2023-02-28T05:14:19;99436.28;;;-3.43;75.58
77799;BME280;66989;50.426;15.352;2023-02-28T05:16:44;99443.16;;;-3.40;75.09
77799;BME280;66989;50.426;15.352;2023-02-28T05:19:09;99446.59;;;-3.41;75.56
77799;BME280;66989;50.426;15.352;2023-02-28T05:21:38;99453.47;;;-3.40;75.76
77799;BME280;66989;50.426;15.352;2023-02-28T05:24:09;99447.44;;;-3.38;75.08
77799;BME280;66989;50.426;15.352;2023-02-28T05:26:37;99448.31;;;-3.39;75.02
77799;BME280;66989;50.426;15.352;2023-02-28T05:29:03;99455.19;;;-3.42;75.04
77799;BME280;66989;50.426;15.352;2023-02-28T05:31:28;99449.16;;;-3.43;75.28
77799;BME280;66989;50.426;15.352;2023-02-28T05:33:54;99456.06;;;-3.40;74.11
77799;BME280;66989;50.426;15.352;2023-02-28T05:36:21;99455.16;;;-3.33;74.41
77799;BME280;66989;50.426;15.352;2023-02-28T05:38:48;99463.78;;;-3.31;74.14
77799;BME280;66989;50.426;15.352;2023-02-28T05:41:14;99459.47;;;-3.35;74.09
77799;BME280;66989;50.426;15.352;2023-02-28T05:43:40;99459.47;;;-3.29;74.42
77799;BME280;66989;50.426;15.352;2023-02-28T05:46:07;99463.78;;;-3.22;73.74
77799;BME280;66989;50.426;15.352;2023-02-28T05:48:34;99467.19;;;-3.23;73.75
77799;BME280;66989;50.426;15.352;2023-02-28T05:51:00;99467.19;;;-3.23;74.09
77799;BME280;66989;50.426;15.352;2023-02-28T05:53:27;99474.09;;;-3.22;73.45
77799;BME280;66989;50.426;15.352;2023-02-28T05:55:52;99472.34;;;-3.14;72.75
77799;BME280;66989;50.426;15.352;2023-02-28T05:58:18;99472.34;;;-3.12;72.40
77799;BME280;66989;50.426;15.352;2023-02-28T06:00:44;99471.47;;;-3.08;73.01
77799;BME280;66989;50.426;15.352;2023-02-28T06:03:09;99470.63;;;-3.15;72.84
77799;BME280;66989;50.426;15.352;2023-02-28T06:05:34;99484.38;;;-3.07;72.21
77799;BME280;66989;50.426;15.352;2023-02-28T06:08:00;99484.38;;;-2.98;71.65
77799;BME280;66989;50.426;15.352;2023-02-28T06:10:25;99488.66;;;-2.90;72.04
77799;BME280;66989;50.426;15.352;2023-02-28T06:12:54;99483.50;;;-2.90;71.11
77799;BME280;66989;50.426;15.352;2023-02-28T06:15:20;99492.09;;;-2.88;70.66
77799;BME280;66989;50.426;15.352;2023-02-28T06:17:46;99479.19;;;-2.85;70.46
77799;BME280;66989;50.426;15.352;2023-02-28T06:20:12;99487.78;;;-2.79;70.16
77799;BME280;66989;50.426;15.352;2023-02-28T06:22:40;99490.31;;;-2.76;70.18
77799;BME280;66989;50.426;15.352;2023-02-28T06:25:07;99484.28;;;-2.67;70.36
77799;BME280;66989;50.426;15.352;2023-02-28T06:27:33;99489.44;;;-2.62;69.69
77799;BME280;66989;50.426;15.352;2023-02-28T06:29:59;99492.84;;;-2.56;70.06
77799;BME280;66989;50.426;15.352;2023-02-28T06:32:24;99497.13;;;-2.50;69.81
77799;BME280;66989;50.426;15.352;2023-02-28T06:34:50;99506.59;;;-2.45;69.02
77799;BME280;66989;50.426;15.352;2023-02-28T06:37:16;99505.72;;;-2.39;69.10
77799;BME280;66989;50.426;15.352;2023-02-28T06:39:41;99499.66;;;-2.32;68.07
77799;BME280;66989;50.426;15.352;2023-02-28T06:42:07;99512.53;;;-2.20;68.72
77799;BME280;66989;50.426;15.352;2023-02-28T06:44:32;99508.13;;;-2.04;67.55
77799;BME280;66989;50.426;15.352;2023-02-28T06:47:04;99501.19;;;-1.86;66.96
77799;BME280;66989;50.426;15.352;2023-02-28T06:49:31;99508.78;;;-1.65;66.28
77799;BME280;66989;50.426;15.352;2023-02-28T06:51:57;99509.41;;;-1.32;64.86
77799;BME280;66989;50.426;15.352;2023-02-28T06:54:22;99499.47;;;-0.81;63.17
77799;BME280;66989;50.426;15.352;2023-02-28T06:56:49;99498.47;;;0.06;60.39
77799;BME280;66989;50.426;15.352;2023-02-28T06:59:14;99503.75;;;0.58;57.72
77799;BME280;66989;50.426;15.352;2023-02-28T07:01:40;99497.94;;;0.97;56.13
77799;BME280;66989;50.426;15.352;2023-02-28T07:04:06;99504.00;;;1.45;54.52
77799;BME280;66989;50.426;15.352;2023-02-28T07:06:31;99501.94;;;1.62;53.64
77799;BME280;66989;50.426;15.352;2023-02-28T07:08:57;99494.16;;;1.61;53.13
77799;BME280;66989;50.426;15.352;2023-02-28T07:11:25;99496.97;;;1.95;53.00
77799;BME280;66989;50.426;15.352;2023-02-28T07:13:51;99496.41;;;2.58;50.61
77799;BME280;66989;50.426;15.352;2023-02-28T07:16:18;99493.59;;;2.66;50.30
77799;BME280;66989;50.426;15.352;2023-02-28T07:18:43;99499.75;;;2.63;50.03
77799;BME280;66989;50.426;15.352;2023-02-28T07:21:10;99495.69;;;2.89;49.74
77799;BME280;66989;50.426;15.352;2023-02-28T07:23:36;99498.94;;;3.31;48.21
77799;BME280;66989;50.426;15.352;2023-02-28T07:26:06;99502.56;;;3.24;48.42
77799;BME280;66989;50.426;15.352;2023-02-28T07:28:32;99503.19;;;3.34;47.55
77799;BME280;66989;50.426;15.352;2023-02-28T07:31:07;99508.16;;;2.74;48.61
77799;BME280;66989;50.426;15.352;2023-02-28T07:33:33;99502.78;;;3.49;46.97
77799;BME280;66989;50.426;15.352;2023-02-28T07:36:04;99507.47;;;3.36;45.57
77799;BME280;66989;50.426;15.352;2023-02-28T07:38:30;99505.31;;;3.52;46.03
77799;BME280;66989;50.426;15.352;2023-02-28T07:40:56;99508.97;;;3.12;46.33
77799;BME280;66989;50.426;15.352;2023-02-28T07:43:21;99507.09;;;3.50;46.79
77799;BME280;66989;50.426;15.352;2023-02-28T07:45:47;99514.81;;;4.45;44.24
77799;BME280;66989;50.426;15.352;2023-02-28T07:48:12;99506.00;;;4.19;43.79
77799;BME280;66989;50.426;15.352;2023-02-28T07:50:37;99510.97;;;4.28;44.75
77799;BME280;66989;50.426;15.352;2023-02-28T07:53:03;99511.50;;;4.10;44.21
77799;BME280;66989;50.426;15.352;2023-02-28T07:55:30;99514.88;;;4.14;44.20
77799;BME280;66989;50.426;15.352;2023-02-28T07:57:57;99516.19;;;4.28;43.41
77799;BME280;66989;50.426;15.352;2023-02-28T08:00:23;99515.81;;;3.81;44.48
77799;BME280;66989;50.426;15.352;2023-02-28T08:02:48;99520.84;;;4.47;42.65
77799;BME280;66989;50.426;15.352;2023-02-28T08:05:14;99513.13;;;4.42;42.88
77799;BME280;66989;50.426;15.352;2023-02-28T08:07:39;99518.44;;;4.95;42.53
77799;BME280;66989;50.426;15.352;2023-02-28T08:10:08;99507.41;;;5.38;40.64
77799;BME280;66989;50.426;15.352;2023-02-28T08:12:35;99512.56;;;5.65;40.62
77799;BME280;66989;50.426;15.352;2023-02-28T08:15:01;99514.28;;;4.61;42.15
77799;BME280;66989;50.426;15.352;2023-02-28T08:17:29;99519.25;;;4.97;41.40
77799;BME280;66989;50.426;15.352;2023-02-28T08:19:55;99515.16;;;5.15;41.41
77799;BME280;66989;50.426;15.352;2023-02-28T08:22:20;99506.16;;;5.97;39.88
77799;BME280;66989;50.426;15.352;2023-02-28T08:24:54;99502.00;;;5.91;39.70
77799;BME280;66989;50.426;15.352;2023-02-28T08:27:25;99500.63;;;6.28;38.83
77799;BME280;66989;50.426;15.352;2023-02-28T08:29:50;99500.78;;;6.69;38.25
77799;BME280;66989;50.426;15.352;2023-02-28T08:32:16;99501.59;;;6.71;38.57
77799;BME280;66989;50.426;15.352;2023-02-28T08:34:41;99493.88;;;7.31;37.16
77799;BME280;66989;50.426;15.352;2023-02-28T08:37:06;99496.19;;;7.59;36.06
77799;BME280;66989;50.426;15.352;2023-02-28T08:39:35;99492.56;;;7.61;36.36
77799;BME280;66989;50.426;15.352;2023-02-28T08:42:03;99496.91;;;8.02;35.44
77799;BME280;66989;50.426;15.352;2023-02-28T08:44:28;99503.38;;;7.74;35.81
77799;BME280;66989;50.426;15.352;2023-02-28T08:46:54;99509.31;;;7.38;35.86
77799;BME280;66989;50.426;15.352;2023-02-28T08:49:19;99500.69;;;7.35;36.32
77799;BME280;66989;50.426;15.352;2023-02-28T08:51:45;99508.28;;;6.56;37.73
77799;BME280;66989;50.426;15.352;2023-02-28T08:54:10;99505.16;;;6.25;38.47
77799;BME280;66989;50.426;15.352;2023-02-28T08:56:41;99500.13;;;6.18;38.83
77799;BME280;66989;50.426;15.352;2023-02-28T08:59:08;99496.88;;;6.12;37.95
77799;BME280;66989;50.426;15.352;2023-02-28T09:01:34;99520.16;;;5.96;38.92
77799;BME280;66989;50.426;15.352;2023-02-28T09:04:01;99513.22;;;6.18;38.07
77799;BME280;66989;50.426;15.352;2023-02-28T09:06:28;99503.03;;;6.78;37.19
77799;BME280;66989;50.426;15.352;2023-02-28T09:08:56;99500.78;;;7.54;36.65
77799;BME280;66989;50.426;15.352;2023-02-28T09:11:23;99502.97;;;7.42;35.40
77799;BME280;66989;50.426;15.352;2023-02-28T09:13:49;99500.78;;;7.54;34.55
77799;BME280;66989;50.426;15.352;2023-02-28T09:16:16;99509.59;;;7.71;34.89
77799;BME280;66989;50.426;15.352;2023-02-28T09:18:42;99497.84;;;8.93;34.09
77799;BME280;66989;50.426;15.352;2023-02-28T09:21:11;99501.06;;;8.26;33.37
77799;BME280;66989;50.426;15.352;2023-02-28T09:23:40;99502.38;;;8.53;32.86
77799;BME280;66989;50.426;15.352;2023-02-28T09:26:06;99497.19;;;8.14;33.76
77799;BME280;66989;50.426;15.352;2023-02-28T09:28:31;99507.88;;;8.11;34.16
77799;BME280;66989;50.426;15.352;2023-02-28T09:30:57;99502.94;;;7.83;34.19
77799;BME280;66989;50.426;15.352;2023-02-28T09:33:25;99502.19;;;7.61;34.41
77799;BME280;66989;50.426;15.352;2023-02-28T09:35:53;99497.28;;;8.13;34.28
77799;BME280;66989;50.426;15.352;2023-02-28T09:38:22;99498.28;;;8.10;34.50
77799;BME280;66989;50.426;15.352;2023-02-28T09:40:52;99501.06;;;8.26;34.19
77799;BME280;66989;50.426;15.352;2023-02-28T09:43:22;99500.13;;;8.27;33.83
77799;BME280;66989;50.426;15.352;2023-02-28T09:45:51;99497.63;;;8.62;32.55
77799;BME280;66989;50.426;15.352;2023-02-28T09:48:21;99502.03;;;9.15;32.91
77799;BME280;66989;50.426;15.352;2023-02-28T09:50:52;99497.19;;;9.75;31.31
77799;BME280;66989;50.426;15.352;2023-02-28T09:53:35;99498.31;;;9.71;31.68
77799;BME280;66989;50.426;15.352;2023-02-28T09:56:14;99496.78;;;10.16;31.11
77799;BME280;66989;50.426;15.352;2023-02-28T09:59:01;99492.94;;;12.60;28.27
77799;BME280;66989;50.426;15.352;2023-02-28T10:06:58;99498.28;;;13.00;27.14
77799;BME280;66989;50.426;15.352;2023-02-28T10:09:27;99494.63;;;13.81;25.51
77799;BME280;66989;50.426;15.352;2023-02-28T10:12:01;99500.63;;;12.78;26.28
77799;BME280;66989;50.426;15.352;2023-02-28T10:14:30;99506.56;;;11.83;27.28
77799;BME280;66989;50.426;15.352;2023-02-28T10:17:00;99498.28;;;11.30;29.22
77799;BME280;66989;50.426;15.352;2023-02-28T10:19:34;99499.16;;;11.59;28.35
77799;BME280;66989;50.426;15.352;2023-02-28T10:22:14;99496.69;;;11.42;28.06
77799;BME280;66989;50.426;15.352;2023-02-28T10:24:43;99495.41;;;11.92;28.88
77799;BME280;66989;50.426;15.352;2023-02-28T10:27:16;99489.06;;;12.52;27.88
77799;BME280;66989;50.426;15.352;2023-02-28T10:29:55;99483.84;;;13.18;26.30
77799;BME280;66989;50.426;15.352;2023-02-28T10:32:24;99484.19;;;11.88;26.93
77799;BME280;66989;50.426;15.352;2023-02-28T10:34:57;99479.06;;;12.57;28.08
77799;BME280;66989;50.426;15.352;2023-02-28T10:37:25;99472.94;;;14.38;25.62
77799;BME280;66989;50.426;15.352;2023-02-28T10:39:51;99471.22;;;15.21;24.21
77799;BME280;66989;50.426;15.352;2023-02-28T10:44:44;99456.38;;;15.88;23.48
77799;BME280;66989;50.426;15.352;2023-02-28T10:47:15;99454.59;;;17.20;21.58
77799;BME280;66989;50.426;15.352;2023-02-28T10:49:47;99466.88;;;15.55;22.98
77799;BME280;66989;50.426;15.352;2023-02-28T10:52:32;99478.53;;;13.31;24.74
77799;BME280;66989;50.426;15.352;2023-02-28T10:55:22;99477.25;;;12.57;26.15
77799;BME280;66989;50.426;15.352;2023-02-28T10:57:55;99472.00;;;13.62;24.75
77799;BME280;66989;50.426;15.352;2023-02-28T11:00:31;99470.41;;;13.47;25.03
77799;BME280;66989;50.426;15.352;2023-02-28T11:02:57;99471.41;;;12.79;25.86
77799;BME280;66989;50.426;15.352;2023-02-28T11:05:31;99465.56;;;12.74;26.17
77799;BME280;66989;50.426;15.352;2023-02-28T11:10:32;99460.06;;;13.04;25.87
77799;BME280;66989;50.426;15.352;2023-02-28T11:13:00;99456.59;;;12.77;26.77
77799;BME280;66989;50.426;15.352;2023-02-28T11:15:30;99457.09;;;11.85;27.34
77799;BME280;66989;50.426;15.352;2023-02-28T11:20:49;99458.41;;;10.59;28.63
77799;BME280;66989;50.426;15.352;2023-02-28T11:23:16;99460.34;;;10.71;29.13
77799;BME280;66989;50.426;15.352;2023-02-28T11:25:49;99457.13;;;10.96;28.37
77799;BME280;66989;50.426;15.352;2023-02-28T11:28:31;99461.63;;;11.69;27.24
77799;BME280;66989;50.426;15.352;2023-02-28T11:33:51;99454.34;;;10.83;29.12
77799;BME280;66989;50.426;15.352;2023-02-28T11:38:42;99434.09;;;12.42;27.22
77799;BME280;66989;50.426;15.352;2023-02-28T11:47:01;99427.41;;;13.43;26.25
77799;BME280;66989;50.426;15.352;2023-02-28T11:49:57;99417.72;;;14.91;24.13
77799;BME280;66989;50.426;15.352;2023-02-28T11:57:57;99422.00;;;13.45;25.54
77799;BME280;66989;50.426;15.352;2023-02-28T12:05:51;99413.47;;;13.14;26.05
77799;BME280;66989;50.426;15.352;2023-02-28T12:08:53;99393.91;;;15.60;24.56
77799;BME280;66989;50.426;15.352;2023-02-28T12:17:20;99403.38;;;14.69;24.46
77799;BME280;66989;50.426;15.352;2023-02-28T12:25:55;99381.25;;;17.25;21.42
77799;BME280;66989;50.426;15.352;2023-02-28T12:28:27;99382.97;;;17.57;21.19
77799;BME280;66989;50.426;15.352;2023-02-28T12:31:11;99381.66;;;17.21;21.69
77799;BME280;66989;50.426;15.352;2023-02-28T12:33:43;99386.47;;;16.19;22.35
77799;BME280;66989;50.426;15.352;2023-02-28T12:36:16;99387.88;;;15.22;23.77
77799;BME280;66989;50.426;15.352;2023-02-28T12:44:05;99377.56;;;15.07;24.41
77799;BME280;66989;50.426;15.352;2023-02-28T12:46:36;99363.88;;;17.52;21.99
77799;BME280;66989;50.426;15.352;2023-02-28T12:49:10;99371.91;;;16.34;22.23
77799;BME280;66989;50.426;15.352;2023-02-28T12:51:37;99365.88;;;15.09;23.77
77799;BME280;66989;50.426;15.352;2023-02-28T12:54:42;99365.38;;;14.45;24.99
77799;BME280;66989;50.426;15.352;2023-02-28T12:57:19;99369.63;;;13.48;26.30
77799;BME280;66989;50.426;15.352;2023-02-28T12:59:55;99371.06;;;12.76;27.07
77799;BME280;66989;50.426;15.352;2023-02-28T13:11:46;99373.69;;;14.64;24.43
77799;BME280;66989;50.426;15.352;2023-02-28T13:14:23;99360.63;;;14.96;24.47
77799;BME280;66989;50.426;15.352;2023-02-28T13:17:03;99356.75;;;15.24;24.10
77799;BME280;66989;50.426;15.352;2023-02-28T13:19:39;99358.91;;;14.84;24.53
77799;BME280;66989;50.426;15.352;2023-02-28T13:22:16;99355.78;;;15.48;23.83
77799;BME280;66989;50.426;15.352;2023-02-28T13:24:53;99351.81;;;15.42;24.01
77799;BME280;66989;50.426;15.352;2023-02-28T13:27:36;99347.06;;;16.89;22.80
77799;BME280;66989;50.426;15.352;2023-02-28T13:35:45;99338.50;;;16.42;22.33
77799;BME280;66989;50.426;15.352;2023-02-28T13:38:21;99349.53;;;15.82;23.46
77799;BME280;66989;50.426;15.352;2023-02-28T13:40:47;99345.81;;;13.98;25.65
77799;BME280;66989;50.426;15.352;2023-02-28T13:43:16;99356.94;;;13.28;26.38
77799;BME280;66989;50.426;15.352;2023-02-28T13:46:09;99362.06;;;12.39;28.09
77799;BME280;66989;50.426;15.352;2023-02-28T13:48:35;99352.22;;;12.93;27.55
77799;BME280;66989;50.426;15.352;2023-02-28T13:51:40;99348.44;;;13.36;27.04
77799;BME280;66989;50.426;15.352;2023-02-28T14:00:23;99330.56;;;15.65;25.10
77799;BME280;66989;50.426;15.352;2023-02-28T14:05:44;99333.44;;;15.84;24.43
77799;BME280;66989;50.426;15.352;2023-02-28T14:08:20;99324.34;;;15.19;25.49
77799;BME280;66989;50.426;15.352;2023-02-28T14:10:49;99331.41;;;13.77;26.45
77799;BME280;66989;50.426;15.352;2023-02-28T14:16:03;99328.53;;;13.17;27.54
77799;BME280;66989;50.426;15.352;2023-02-28T14:18:35;99338.19;;;12.12;30.60
77799;BME280;66989;50.426;15.352;2023-02-28T14:23:44;99343.56;;;11.83;29.83
77799;BME280;66989;50.426;15.352;2023-02-28T14:31:43;99333.63;;;10.73;32.49
77799;BME280;66989;50.426;15.352;2023-02-28T14:34:25;99330.47;;;10.96;31.77
77799;BME280;66989;50.426;15.352;2023-02-28T14:36:58;99331.84;;;10.87;32.00
77799;BME280;66989;50.426;15.352;2023-02-28T14:39:27;99337.44;;;10.97;32.11
77799;BME280;66989;50.426;15.352;2023-02-28T14:41:56;99334.53;;;11.02;31.93
77799;BME280;66989;50.426;15.352;2023-02-28T14:44:27;99330.94;;;11.46;30.52
77799;BME280;66989;50.426;15.352;2023-02-28T14:47:03;99331.34;;;10.67;30.62
77799;BME280;66989;50.426;15.352;2023-02-28T14:49:34;99325.38;;;10.33;32.01
77799;BME280;66989;50.426;15.352;2023-02-28T14:52:24;99335.94;;;10.17;32.23
77799;BME280;66989;50.426;15.352;2023-02-28T14:55:15;99328.75;;;10.51;31.74